createdAt,value
2023-11-21T00:03:20.759Z,14.02
2023-11-21T00:08:22.709Z,18.13
2023-11-21T00:13:24.865Z,16.92
2023-11-21T00:18:29.579Z,26.52
2023-11-21T00:23:31.648Z,12.32
2023-11-21T00:28:34.231Z,21.73
2023-11-21T00:33:36.765Z,24.83
2023-11-21T00:38:41.417Z,15.57
2023-11-21T00:43:43.855Z,15.70
2023-11-21T00:48:46.740Z,10.85
2023-11-21T00:53:49.577Z,10.98
2023-11-21T00:58:53.945Z,9.07
2023-11-21T01:03:56.984Z,14.18
2023-11-21T01:08:59.635Z,13.63
2023-11-21T01:14:02.314Z,9.32
2023-11-21T01:19:08.988Z,18.27
2023-11-21T01:24:14.965Z,14.57
2023-11-21T01:29:19.544Z,31.73
2023-11-21T01:34:22.225Z,11.95
2023-11-21T01:39:25.362Z,14.32
2023-11-21T01:44:29.805Z,11.90
2023-11-21T01:49:34.891Z,14.23
2023-11-21T01:54:37.972Z,23.30
2023-11-21T01:59:45.268Z,12.80
2023-11-21T02:04:47.785Z,18.48
2023-11-21T02:09:53.498Z,15.18
2023-11-21T02:14:57.079Z,12.25
2023-11-21T02:19:59.824Z,8.40
2023-11-21T02:25:02.353Z,30.83
2023-11-21T02:30:06.369Z,15.82
2023-11-21T02:35:09.615Z,14.35
2023-11-21T02:40:19.303Z,19.98
2023-11-21T02:45:22.915Z,14.45
2023-11-21T02:50:29.085Z,20.10
2023-11-21T02:55:36.342Z,10.18
2023-11-21T03:00:41.514Z,18.25
2023-11-21T03:05:44.199Z,21.63
2023-11-21T03:10:46.715Z,14.18
2023-11-21T03:15:50.046Z,26.52
2023-11-21T03:20:54.386Z,21.23
2023-11-21T03:25:57.043Z,14.05
2023-11-21T03:31:02.744Z,40.55
2023-11-21T03:36:06.493Z,8.93
2023-11-21T03:41:11.404Z,17.85
2023-11-21T03:46:13.712Z,16.70
2023-11-21T03:51:16.309Z,20.10
2023-11-21T03:56:20.755Z,10.10
2023-11-21T04:01:24.067Z,12.82
2023-11-21T04:06:26.991Z,22.58
2023-11-21T04:11:31.397Z,16.73
2023-11-21T04:16:36.030Z,12.32
2023-11-21T04:21:41.907Z,9.90
2023-11-21T04:26:48.619Z,23.73
2023-11-21T04:31:50.882Z,21.13
2023-11-21T04:36:59.385Z,28.65
2023-11-21T04:42:02.234Z,23.08
2023-11-21T04:47:05.976Z,27.33
2023-11-21T04:52:11.490Z,20.73
2023-11-21T04:57:13.859Z,21.83
2023-11-21T05:02:30.566Z,16.85
2023-11-21T05:07:38.696Z,28.02
2023-11-21T05:12:42.489Z,16.40
2023-11-21T05:17:47.312Z,13.40
2023-11-21T05:22:50.103Z,14.18
2023-11-21T05:27:52.431Z,21.05
2023-11-21T05:32:54.702Z,7.88
2023-11-21T05:37:57.623Z,18.33
2023-11-21T05:43:00.470Z,15.32
2023-11-21T05:48:07.512Z,15.57
2023-11-21T05:58:18.245Z,19.52
2023-11-21T06:03:20.715Z,18.13
2023-11-21T06:08:23.318Z,19.92
2023-11-21T06:13:29.193Z,21.13
2023-11-21T06:18:31.784Z,23.02
2023-11-21T06:23:37.057Z,18.95
2023-11-21T06:28:41.732Z,26.40
2023-11-21T06:33:44.352Z,43.50
2023-11-21T06:38:47.244Z,32.47
2023-11-21T06:43:50.910Z,42.92
2023-11-21T06:48:53.600Z,40.47
2023-11-21T06:53:56.148Z,36.80
2023-11-21T06:59:01.491Z,34.38
2023-11-21T07:04:04.814Z,34.17
2023-11-21T07:09:09.562Z,33.53
2023-11-21T07:14:13.432Z,22.63
2023-11-21T07:19:18.611Z,38.35
2023-11-21T07:24:27.298Z,36.95
2023-11-21T07:29:31.150Z,24.92
2023-11-21T07:34:33.760Z,22.05
2023-11-21T07:39:43.357Z,20.05
2023-11-21T07:44:47.707Z,16.92
2023-11-21T07:49:50.071Z,22.38
2023-11-21T07:54:57.468Z,22.77
2023-11-21T08:00:01.062Z,16.83
2023-11-21T08:05:03.632Z,18.77
2023-11-21T08:10:11.758Z,20.92
2023-11-21T08:15:14.156Z,23.00
2023-11-21T08:20:17.620Z,17.80
2023-11-21T08:25:21.716Z,12.73
2023-11-21T08:30:29.244Z,18.42
2023-11-21T08:35:35.647Z,19.30
2023-11-21T08:40:41.556Z,7.22
2023-11-21T08:45:47.207Z,11.32
2023-11-21T08:50:49.743Z,8.27
2023-11-21T08:55:55.186Z,20.33
2023-11-21T09:00:57.862Z,14.57
2023-11-21T09:06:00.863Z,11.70
2023-11-21T09:11:04.011Z,11.75
2023-11-21T09:16:07.113Z,12.13
2023-11-21T09:21:10.148Z,16.17
2023-11-21T09:26:15.642Z,8.20
2023-11-21T09:31:18.527Z,15.68
2023-11-21T09:36:25.596Z,12.02
2023-11-21T09:41:36.374Z,15.60
2023-11-21T09:46:40.891Z,17.20
2023-11-21T09:51:49.617Z,19.08
2023-11-21T09:56:57.673Z,12.82
2023-11-21T10:02:00.147Z,9.82
2023-11-21T10:07:03.758Z,10.05
2023-11-21T10:12:09.571Z,14.45
2023-11-21T10:17:17.656Z,6.25
2023-11-21T10:22:24.631Z,12.65
2023-11-21T10:27:28.815Z,9.23
2023-11-21T10:32:37.340Z,12.05
2023-11-21T10:37:42.456Z,8.15
2023-11-21T10:42:45.051Z,10.75
2023-11-21T10:47:47.484Z,8.18
2023-11-21T10:52:49.846Z,6.57
2023-11-21T10:57:55.572Z,4.95
2023-11-21T11:03:00.449Z,11.45
2023-11-21T11:08:07.900Z,15.88
2023-11-21T11:13:10.627Z,12.30
2023-11-21T11:18:19.061Z,25.88
2023-11-21T11:23:32.444Z,10.02
2023-11-21T11:28:54.536Z,6.30
2023-11-21T11:34:16.328Z,11.65
2023-11-21T11:39:42.962Z,15.05
2023-11-21T11:44:48.766Z,9.73
2023-11-21T11:50:09.746Z,15.90
2023-11-21T11:55:15.052Z,8.18
2023-11-21T12:00:31.720Z,5.50
2023-11-21T12:05:37.292Z,15.75
2023-11-21T12:10:43.929Z,5.60
2023-11-21T12:15:49.234Z,10.20
2023-11-21T12:20:52.393Z,9.73
2023-11-21T12:25:54.712Z,3.53
2023-11-21T12:31:07.852Z,12.40
2023-11-21T12:36:17.268Z,14.73
2023-11-21T12:41:19.252Z,6.70
2023-11-21T12:46:21.801Z,11.07
2023-11-21T12:51:24.125Z,12.38
2023-11-21T12:56:26.705Z,9.40
2023-11-21T13:01:30.664Z,8.93
2023-11-21T13:06:35.537Z,13.02
2023-11-21T13:11:38.536Z,10.65
2023-11-21T13:16:43.420Z,7.47
2023-11-21T13:21:45.317Z,6.85
2023-11-21T13:26:48.239Z,8.40
2023-11-21T13:31:52.077Z,6.15
2023-11-21T13:36:59.651Z,12.15
2023-11-21T13:42:01.507Z,6.88
2023-11-21T13:47:03.686Z,10.93
2023-11-21T13:52:07.759Z,5.97
2023-11-21T13:57:10.907Z,13.63
2023-11-21T14:02:19.673Z,10.93
2023-11-21T14:07:36.743Z,12.07
2023-11-21T14:12:42.363Z,13.75
2023-11-21T14:17:44.317Z,13.82
2023-11-21T14:22:46.618Z,8.32
2023-11-21T14:27:52.109Z,16.10
2023-11-21T14:32:54.428Z,11.48
2023-11-21T14:37:59.810Z,8.48
2023-11-21T14:43:02.736Z,12.02
2023-11-21T14:48:06.738Z,6.20
2023-11-21T14:53:14.455Z,6.75
2023-11-21T14:58:27.813Z,9.27
2023-11-21T15:03:33.686Z,11.07
2023-11-21T15:08:37.840Z,9.52
2023-11-21T15:13:42.762Z,8.15
2023-11-21T15:18:45.281Z,12.90
2023-11-21T15:23:47.694Z,3.60
2023-11-21T15:28:51.725Z,11.20
2023-11-21T15:34:04.622Z,7.07
2023-11-21T15:39:12.346Z,7.35
2023-11-21T15:44:18.061Z,9.98
2023-11-21T15:49:23.869Z,4.90
2023-11-21T15:54:27.445Z,3.63
2023-11-21T15:59:35.522Z,2.38
2023-11-21T16:04:40.698Z,6.43
2023-11-21T16:09:44.529Z,5.40
2023-11-21T16:14:49.092Z,0.22
2023-11-21T16:19:52.368Z,3.33
2023-11-21T16:24:54.847Z,7.22
2023-11-21T16:30:08.163Z,8.70
2023-11-21T16:35:13.511Z,4.15
2023-11-21T16:40:20.523Z,6.05
2023-11-21T16:45:25.030Z,3.05
2023-11-21T16:50:27.613Z,3.10
2023-11-21T16:55:31.132Z,3.97
2023-11-21T17:00:36.334Z,0.52
2023-11-21T17:05:46.629Z,1.80
2023-11-21T17:10:54.306Z,5.32
2023-11-21T17:16:00.832Z,7.22
2023-11-21T17:26:10.375Z,5.25
2023-11-21T17:31:13.127Z,3.75
2023-11-21T17:36:16.629Z,4.00
2023-11-21T17:41:28.560Z,6.68
2023-11-21T17:46:37.587Z,7.43
2023-11-21T17:51:41.076Z,4.00
2023-11-21T17:56:43.369Z,2.42
2023-11-21T18:01:48.104Z,7.10
2023-11-21T18:06:50.825Z,6.82
2023-11-21T18:11:53.440Z,8.27
2023-11-21T18:16:57.163Z,5.43
2023-11-21T18:22:02.511Z,3.22
2023-11-21T18:27:06.090Z,4.35
2023-11-21T18:32:12.713Z,3.72
2023-11-21T18:37:15.620Z,1.95
2023-11-21T18:42:22.181Z,7.50
2023-11-21T18:47:32.203Z,6.90
2023-11-21T18:52:34.582Z,15.43
2023-11-21T18:57:37.022Z,7.63
2023-11-21T19:02:41.160Z,3.60
2023-11-21T19:07:43.793Z,6.75
2023-11-21T19:12:46.185Z,13.65
2023-11-21T19:17:53.281Z,4.88
2023-11-21T19:22:56.981Z,7.07
2023-11-21T19:27:59.829Z,5.65
2023-11-21T19:33:06.854Z,10.02
2023-11-21T19:38:12.660Z,7.50
2023-11-21T19:43:15.785Z,13.00
2023-11-21T19:48:24.415Z,14.65
2023-11-21T19:53:33.699Z,20.40
2023-11-21T19:58:43.420Z,12.45
2023-11-21T20:03:45.971Z,11.32
2023-11-21T20:08:53.064Z,4.88
2023-11-21T20:14:00.281Z,7.53
2023-11-21T20:19:08.823Z,8.48
2023-11-21T20:24:14.621Z,19.13
2023-11-21T20:29:18.552Z,11.65
2023-11-21T20:34:21.237Z,11.13
2023-11-21T20:39:24.333Z,9.93
2023-11-21T20:44:29.060Z,10.75
2023-11-21T20:49:38.807Z,12.95
2023-11-21T20:54:47.890Z,9.52
2023-11-21T20:59:50.416Z,15.40
2023-11-21T21:04:54.296Z,8.88
2023-11-21T21:10:00.417Z,24.20
2023-11-21T21:15:04.410Z,5.95
2023-11-21T21:20:07.461Z,5.63
2023-11-21T21:25:10.441Z,7.00
2023-11-21T21:30:15.859Z,9.48
2023-11-21T21:35:19.775Z,11.90
2023-11-21T21:40:22.204Z,10.13
2023-11-21T21:45:26.989Z,9.20
2023-11-21T21:50:30.972Z,17.63
2023-11-21T21:55:33.792Z,7.68
2023-11-21T22:00:38.131Z,7.45
2023-11-21T22:05:41.743Z,7.15
2023-11-21T22:10:46.907Z,9.38
2023-11-21T22:15:52.169Z,8.52
2023-11-21T22:20:55.816Z,8.90
2023-11-21T22:25:58.345Z,10.45
2023-11-21T22:31:01.256Z,8.20
2023-11-21T22:36:05.048Z,4.43
2023-11-21T22:41:07.569Z,8.57
2023-11-21T22:46:15.778Z,10.43
2023-11-21T22:51:25.370Z,14.13
2023-11-21T22:56:30.834Z,11.32
2023-11-21T23:01:37.348Z,6.00
2023-11-21T23:06:44.626Z,7.43
2023-11-21T23:11:50.731Z,9.73
2023-11-21T23:16:53.996Z,9.88
2023-11-21T23:21:56.446Z,5.95
2023-11-21T23:27:06.506Z,12.27
2023-11-21T23:32:09.230Z,12.90
2023-11-21T23:37:11.671Z,6.95
2023-11-21T23:42:16.385Z,4.28
2023-11-21T23:47:19.193Z,3.10
2023-11-21T23:52:22.998Z,9.68
2023-11-21T23:57:25.391Z,5.03
